sensor_id;sensor_type;location;lat;lon;timestamp;P1;durP1;ratioP1;P2;durP2;ratioP2
489;SDS011;231;48.120;11.576;2023-04-04T00:00:43;3.80;;;2.73;;
489;SDS011;231;48.120;11.576;2023-04-04T00:03:10;3.03;;;2.83;;
489;SDS011;231;48.120;11.576;2023-04-04T00:05:37;2.63;;;2.50;;
489;SDS011;231;48.120;11.576;2023-04-04T00:08:04;2.93;;;2.73;;
489;SDS011;231;48.120;11.576;2023-04-04T00:10:32;2.83;;;2.63;;
489;SDS011;231;48.120;11.576;2023-04-04T00:12:59;3.80;;;2.50;;
489;SDS011;231;48.120;11.576;2023-04-04T00:15:27;3.27;;;3.07;;
489;SDS011;231;48.120;11.576;2023-04-04T00:17:53;3.40;;;3.20;;
489;SDS011;231;48.120;11.576;2023-04-04T00:20:21;2.67;;;2.40;;
489;SDS011;231;48.120;11.576;2023-04-04T00:22:48;5.00;;;3.10;;
489;SDS011;231;48.120;11.576;2023-04-04T00:25:14;7.70;;;3.17;;
489;SDS011;231;48.120;11.576;2023-04-04T00:27:43;2.73;;;2.53;;
489;SDS011;231;48.120;11.576;2023-04-04T00:30:10;3.50;;;3.00;;
489;SDS011;231;48.120;11.576;2023-04-04T00:32:37;2.83;;;2.63;;
489;SDS011;231;48.120;11.576;2023-04-04T00:35:04;3.40;;;3.20;;
489;SDS011;231;48.120;11.576;2023-04-04T00:37:32;2.93;;;2.40;;
489;SDS011;231;48.120;11.576;2023-04-04T00:39:59;3.27;;;3.07;;
489;SDS011;231;48.120;11.576;2023-04-04T00:42:28;2.67;;;2.47;;
489;SDS011;231;48.120;11.576;2023-04-04T00:44:56;2.90;;;2.70;;
489;SDS011;231;48.120;11.576;2023-04-04T00:47:23;2.50;;;2.40;;
489;SDS011;231;48.120;11.576;2023-04-04T00:49:54;2.80;;;2.60;;
489;SDS011;231;48.120;11.576;2023-04-04T00:52:21;5.00;;;3.00;;
489;SDS011;231;48.120;11.576;2023-04-04T00:54:48;3.13;;;2.63;;
489;SDS011;231;48.120;11.576;2023-04-04T00:57:15;5.10;;;4.20;;
489;SDS011;231;48.120;11.576;2023-04-04T00:59:43;3.10;;;2.87;;
489;SDS011;231;48.120;11.576;2023-04-04T01:02:13;3.00;;;2.83;;
489;SDS011;231;48.120;11.576;2023-04-04T01:04:40;2.57;;;2.37;;
489;SDS011;231;48.120;11.576;2023-04-04T01:07:07;3.60;;;3.40;;
489;SDS011;231;48.120;11.576;2023-04-04T01:09:35;3.33;;;2.50;;
489;SDS011;231;48.120;11.576;2023-04-04T01:12:02;4.87;;;3.00;;
489;SDS011;231;48.120;11.576;2023-04-04T01:14:29;3.17;;;2.70;;
489;SDS011;231;48.120;11.576;2023-04-04T01:16:56;2.50;;;2.33;;
489;SDS011;231;48.120;11.576;2023-04-04T01:19:29;3.13;;;2.77;;
489;SDS011;231;48.120;11.576;2023-04-04T01:21:58;4.13;;;2.90;;
489;SDS011;231;48.120;11.576;2023-04-04T01:24:26;5.70;;;3.13;;
489;SDS011;231;48.120;11.576;2023-04-04T01:26:58;2.90;;;2.70;;
489;SDS011;231;48.120;11.576;2023-04-04T01:29:26;3.40;;;3.20;;
489;SDS011;231;48.120;11.576;2023-04-04T01:31:55;3.80;;;2.80;;
489;SDS011;231;48.120;11.576;2023-04-04T01:34:27;2.50;;;2.27;;
489;SDS011;231;48.120;11.576;2023-04-04T01:37:02;5.83;;;2.50;;
489;SDS011;231;48.120;11.576;2023-04-04T01:39:34;2.67;;;2.47;;
489;SDS011;231;48.120;11.576;2023-04-04T01:45:09;2.70;;;2.50;;
489;SDS011;231;48.120;11.576;2023-04-04T01:47:37;4.70;;;2.50;;
489;SDS011;231;48.120;11.576;2023-04-04T01:50:05;4.73;;;2.70;;
489;SDS011;231;48.120;11.576;2023-04-04T01:52:33;5.10;;;2.80;;
489;SDS011;231;48.120;11.576;2023-04-04T01:54:59;3.43;;;2.90;;
489;SDS011;231;48.120;11.576;2023-04-04T01:57:27;3.53;;;2.73;;
489;SDS011;231;48.120;11.576;2023-04-04T01:59:55;5.03;;;2.67;;
489;SDS011;231;48.120;11.576;2023-04-04T02:02:22;2.77;;;2.60;;
489;SDS011;231;48.120;11.576;2023-04-04T02:04:49;3.83;;;2.50;;
489;SDS011;231;48.120;11.576;2023-04-04T02:07:16;4.20;;;3.00;;
489;SDS011;231;48.120;11.576;2023-04-04T02:09:43;4.27;;;4.03;;
489;SDS011;231;48.120;11.576;2023-04-04T02:12:10;2.50;;;2.30;;
489;SDS011;231;48.120;11.576;2023-04-04T02:14:37;3.60;;;3.30;;
489;SDS011;231;48.120;11.576;2023-04-04T02:17:05;3.43;;;3.23;;
489;SDS011;231;48.120;11.576;2023-04-04T02:19:32;3.70;;;2.83;;
489;SDS011;231;48.120;11.576;2023-04-04T02:21:59;3.27;;;2.70;;
489;SDS011;231;48.120;11.576;2023-04-04T02:24:26;4.73;;;3.37;;
489;SDS011;231;48.120;11.576;2023-04-04T02:26:53;3.50;;;3.30;;
489;SDS011;231;48.120;11.576;2023-04-04T02:29:20;6.20;;;4.10;;
489;SDS011;231;48.120;11.576;2023-04-04T02:31:47;3.60;;;2.90;;
489;SDS011;231;48.120;11.576;2023-04-04T02:34:15;4.47;;;2.87;;
489;SDS011;231;48.120;11.576;2023-04-04T02:36:42;3.83;;;3.63;;
489;SDS011;231;48.120;11.576;2023-04-04T02:39:10;3.73;;;3.13;;
489;SDS011;231;48.120;11.576;2023-04-04T02:41:36;3.70;;;3.13;;
489;SDS011;231;48.120;11.576;2023-04-04T02:44:03;3.30;;;3.10;;
489;SDS011;231;48.120;11.576;2023-04-04T02:46:30;3.43;;;3.17;;
489;SDS011;231;48.120;11.576;2023-04-04T02:48:57;4.00;;;3.80;;
489;SDS011;231;48.120;11.576;2023-04-04T02:51:27;4.00;;;3.37;;
489;SDS011;231;48.120;11.576;2023-04-04T02:53:54;4.47;;;3.50;;
489;SDS011;231;48.120;11.576;2023-04-04T02:56:21;3.83;;;3.10;;
489;SDS011;231;48.120;11.576;2023-04-04T02:58:48;3.30;;;3.10;;
489;SDS011;231;48.120;11.576;2023-04-04T03:01:15;7.47;;;4.70;;
489;SDS011;231;48.120;11.576;2023-04-04T03:03:42;3.40;;;3.20;;
489;SDS011;231;48.120;11.576;2023-04-04T03:06:09;6.43;;;4.67;;
489;SDS011;231;48.120;11.576;2023-04-04T03:08:37;6.17;;;3.97;;
489;SDS011;231;48.120;11.576;2023-04-04T03:11:04;4.40;;;3.93;;
489;SDS011;231;48.120;11.576;2023-04-04T03:13:31;3.63;;;3.53;;
489;SDS011;231;48.120;11.576;2023-04-04T03:15:58;3.50;;;2.80;;
489;SDS011;231;48.120;11.576;2023-04-04T03:18:28;4.93;;;3.00;;
489;SDS011;231;48.120;11.576;2023-04-04T03:20:55;3.10;;;2.93;;
489;SDS011;231;48.120;11.576;2023-04-04T03:23:22;7.80;;;4.30;;
489;SDS011;231;48.120;11.576;2023-04-04T03:25:50;3.00;;;2.80;;
489;SDS011;231;48.120;11.576;2023-04-04T03:28:19;3.50;;;3.30;;
489;SDS011;231;48.120;11.576;2023-04-04T03:30:45;4.83;;;4.53;;
489;SDS011;231;48.120;11.576;2023-04-04T03:33:12;5.10;;;3.30;;
489;SDS011;231;48.120;11.576;2023-04-04T03:35:39;5.27;;;4.00;;
489;SDS011;231;48.120;11.576;2023-04-04T03:38:07;4.00;;;3.60;;
489;SDS011;231;48.120;11.576;2023-04-04T03:40:34;4.37;;;3.13;;
489;SDS011;231;48.120;11.576;2023-04-04T03:43:03;3.70;;;3.47;;
489;SDS011;231;48.120;11.576;2023-04-04T03:45:32;4.00;;;3.80;;
489;SDS011;231;48.120;11.576;2023-04-04T03:47:59;3.50;;;3.30;;
489;SDS011;231;48.120;11.576;2023-04-04T03:50:26;4.20;;;3.10;;
489;SDS011;231;48.120;11.576;2023-04-04T03:52:54;3.97;;;3.63;;
489;SDS011;231;48.120;11.576;2023-04-04T03:55:22;6.17;;;4.00;;
489;SDS011;231;48.120;11.576;2023-04-04T03:57:50;4.07;;;3.87;;
489;SDS011;231;48.120;11.576;2023-04-04T04:00:18;5.90;;;3.43;;
489;SDS011;231;48.120;11.576;2023-04-04T04:02:45;5.83;;;3.07;;
489;SDS011;231;48.120;11.576;2023-04-04T04:05:12;5.93;;;4.37;;
489;SDS011;231;48.120;11.576;2023-04-04T04:07:41;3.93;;;3.73;;
489;SDS011;231;48.120;11.576;2023-04-04T04:10:09;4.87;;;4.10;;
489;SDS011;231;48.120;11.576;2023-04-04T04:12:38;3.73;;;3.57;;
489;SDS011;231;48.120;11.576;2023-04-04T04:15:05;3.10;;;2.90;;
489;SDS011;231;48.120;11.576;2023-04-04T04:17:34;4.00;;;3.80;;
489;SDS011;231;48.120;11.576;2023-04-04T04:20:05;3.70;;;3.53;;
489;SDS011;231;48.120;11.576;2023-04-04T04:22:32;12.03;;;4.13;;
489;SDS011;231;48.120;11.576;2023-04-04T04:24:59;3.83;;;3.63;;
489;SDS011;231;48.120;11.576;2023-04-04T04:27:26;6.87;;;4.20;;
489;SDS011;231;48.120;11.576;2023-04-04T04:29:54;4.33;;;3.63;;
489;SDS011;231;48.120;11.576;2023-04-04T04:32:21;4.77;;;4.47;;
489;SDS011;231;48.120;11.576;2023-04-04T04:34:49;6.67;;;3.97;;
489;SDS011;231;48.120;11.576;2023-04-04T04:37:15;4.60;;;3.70;;
489;SDS011;231;48.120;11.576;2023-04-04T04:39:42;5.20;;;4.40;;
489;SDS011;231;48.120;11.576;2023-04-04T04:42:09;4.73;;;4.43;;
489;SDS011;231;48.120;11.576;2023-04-04T04:44:36;5.33;;;4.73;;
489;SDS011;231;48.120;11.576;2023-04-04T04:47:03;3.90;;;3.70;;
489;SDS011;231;48.120;11.576;2023-04-04T04:49:30;4.47;;;4.23;;
489;SDS011;231;48.120;11.576;2023-04-04T04:51:58;4.47;;;3.70;;
489;SDS011;231;48.120;11.576;2023-04-04T04:54:26;5.03;;;4.67;;
489;SDS011;231;48.120;11.576;2023-04-04T04:56:53;4.30;;;4.00;;
489;SDS011;231;48.120;11.576;2023-04-04T04:59:20;7.83;;;5.40;;
489;SDS011;231;48.120;11.576;2023-04-04T05:01:47;4.87;;;4.10;;
489;SDS011;231;48.120;11.576;2023-04-04T05:04:13;5.27;;;4.17;;
489;SDS011;231;48.120;11.576;2023-04-04T05:06:41;10.30;;;4.83;;
489;SDS011;231;48.120;11.576;2023-04-04T05:09:09;7.93;;;4.17;;
489;SDS011;231;48.120;11.576;2023-04-04T05:11:36;4.07;;;3.83;;
489;SDS011;231;48.120;11.576;2023-04-04T05:14:04;4.83;;;4.47;;
489;SDS011;231;48.120;11.576;2023-04-04T05:16:31;6.20;;;4.43;;
489;SDS011;231;48.120;11.576;2023-04-04T05:18:58;4.50;;;3.80;;
489;SDS011;231;48.120;11.576;2023-04-04T05:21:25;6.00;;;4.20;;
489;SDS011;231;48.120;11.576;2023-04-04T05:23:52;4.57;;;4.27;;
489;SDS011;231;48.120;11.576;2023-04-04T05:26:20;4.10;;;3.90;;
489;SDS011;231;48.120;11.576;2023-04-04T05:28:47;3.70;;;3.50;;
489;SDS011;231;48.120;11.576;2023-04-04T05:31:14;5.97;;;3.50;;
489;SDS011;231;48.120;11.576;2023-04-04T05:33:41;5.20;;;4.50;;
489;SDS011;231;48.120;11.576;2023-04-04T05:36:09;4.70;;;3.80;;
489;SDS011;231;48.120;11.576;2023-04-04T05:38:37;4.60;;;3.87;;
489;SDS011;231;48.120;11.576;2023-04-04T05:41:04;3.80;;;3.60;;
489;SDS011;231;48.120;11.576;2023-04-04T05:43:32;5.27;;;4.07;;
489;SDS011;231;48.120;11.576;2023-04-04T05:45:59;6.73;;;4.10;;
489;SDS011;231;48.120;11.576;2023-04-04T05:48:26;4.67;;;4.20;;
489;SDS011;231;48.120;11.576;2023-04-04T05:50:52;7.00;;;3.87;;
489;SDS011;231;48.120;11.576;2023-04-04T05:53:19;5.50;;;3.60;;
489;SDS011;231;48.120;11.576;2023-04-04T05:55:46;4.63;;;4.33;;
489;SDS011;231;48.120;11.576;2023-04-04T05:58:16;4.63;;;3.43;;
489;SDS011;231;48.120;11.576;2023-04-04T06:00:45;6.37;;;5.90;;
489;SDS011;231;48.120;11.576;2023-04-04T06:03:11;6.77;;;4.87;;
489;SDS011;231;48.120;11.576;2023-04-04T06:05:39;4.50;;;4.20;;
489;SDS011;231;48.120;11.576;2023-04-04T06:08:07;7.47;;;4.60;;
489;SDS011;231;48.120;11.576;2023-04-04T06:10:34;5.10;;;4.33;;
489;SDS011;231;48.120;11.576;2023-04-04T06:13:01;8.07;;;5.10;;
489;SDS011;231;48.120;11.576;2023-04-04T06:15:28;5.13;;;4.83;;
489;SDS011;231;48.120;11.576;2023-04-04T06:17:56;4.90;;;4.37;;
489;SDS011;231;48.120;11.576;2023-04-04T06:20:23;6.23;;;4.60;;
489;SDS011;231;48.120;11.576;2023-04-04T06:22:50;8.23;;;6.10;;
489;SDS011;231;48.120;11.576;2023-04-04T06:25:17;6.87;;;4.87;;
489;SDS011;231;48.120;11.576;2023-04-04T06:27:44;4.87;;;4.47;;
489;SDS011;231;48.120;11.576;2023-04-04T06:30:11;4.43;;;4.13;;
489;SDS011;231;48.120;11.576;2023-04-04T06:32:41;3.87;;;3.67;;
489;SDS011;231;48.120;11.576;2023-04-04T06:35:09;4.90;;;4.10;;
489;SDS011;231;48.120;11.576;2023-04-04T06:37:36;5.77;;;4.43;;
489;SDS011;231;48.120;11.576;2023-04-04T06:40:03;4.40;;;4.10;;
489;SDS011;231;48.120;11.576;2023-04-04T06:42:31;7.83;;;4.33;;
489;SDS011;231;48.120;11.576;2023-04-04T06:44:58;4.33;;;3.93;;
489;SDS011;231;48.120;11.576;2023-04-04T06:47:25;4.50;;;4.03;;
489;SDS011;231;48.120;11.576;2023-04-04T06:49:52;5.03;;;3.60;;
489;SDS011;231;48.120;11.576;2023-04-04T06:52:20;4.97;;;4.13;;
489;SDS011;231;48.120;11.576;2023-04-04T06:54:47;4.93;;;4.30;;
489;SDS011;231;48.120;11.576;2023-04-04T06:57:15;6.30;;;3.80;;
489;SDS011;231;48.120;11.576;2023-04-04T06:59:42;5.00;;;4.00;;
489;SDS011;231;48.120;11.576;2023-04-04T07:02:09;5.83;;;3.87;;
489;SDS011;231;48.120;11.576;2023-04-04T07:04:35;3.90;;;3.70;;
489;SDS011;231;48.120;11.576;2023-04-04T07:07:03;5.00;;;4.00;;
489;SDS011;231;48.120;11.576;2023-04-04T07:09:32;5.77;;;3.67;;
489;SDS011;231;48.120;11.576;2023-04-04T07:11:58;3.77;;;3.60;;
489;SDS011;231;48.120;11.576;2023-04-04T07:14:25;5.20;;;4.10;;
489;SDS011;231;48.120;11.576;2023-04-04T07:16:52;5.43;;;3.90;;
489;SDS011;231;48.120;11.576;2023-04-04T07:19:19;4.10;;;3.90;;
489;SDS011;231;48.120;11.576;2023-04-04T07:21:48;5.03;;;4.40;;
489;SDS011;231;48.120;11.576;2023-04-04T07:24:15;3.50;;;3.30;;
489;SDS011;231;48.120;11.576;2023-04-04T07:26:43;4.57;;;4.00;;
489;SDS011;231;48.120;11.576;2023-04-04T07:29:10;5.23;;;4.07;;
489;SDS011;231;48.120;11.576;2023-04-04T07:31:38;7.63;;;4.23;;
489;SDS011;231;48.120;11.576;2023-04-04T07:34:05;3.50;;;3.30;;
489;SDS011;231;48.120;11.576;2023-04-04T07:36:32;4.60;;;4.33;;
489;SDS011;231;48.120;11.576;2023-04-04T07:38:59;3.57;;;3.30;;
489;SDS011;231;48.120;11.576;2023-04-04T07:41:25;3.30;;;2.73;;
489;SDS011;231;48.120;11.576;2023-04-04T07:43:54;3.67;;;3.27;;
489;SDS011;231;48.120;11.576;2023-04-04T07:46:21;5.00;;;3.90;;
489;SDS011;231;48.120;11.576;2023-04-04T07:48:48;3.67;;;3.47;;
489;SDS011;231;48.120;11.576;2023-04-04T07:51:14;3.83;;;3.63;;
489;SDS011;231;48.120;11.576;2023-04-04T07:53:42;3.97;;;3.77;;
489;SDS011;231;48.120;11.576;2023-04-04T07:56:08;3.70;;;3.50;;
489;SDS011;231;48.120;11.576;2023-04-04T07:58:35;4.40;;;4.10;;
489;SDS011;231;48.120;11.576;2023-04-04T08:01:04;10.03;;;3.83;;
489;SDS011;231;48.120;11.576;2023-04-04T08:03:31;4.50;;;4.20;;
489;SDS011;231;48.120;11.576;2023-04-04T08:05:58;5.57;;;4.17;;
489;SDS011;231;48.120;11.576;2023-04-04T08:08:25;4.20;;;3.30;;
489;SDS011;231;48.120;11.576;2023-04-04T08:10:53;3.70;;;3.50;;
489;SDS011;231;48.120;11.576;2023-04-04T08:13:20;3.97;;;3.77;;
489;SDS011;231;48.120;11.576;2023-04-04T08:15:47;4.17;;;3.93;;
489;SDS011;231;48.120;11.576;2023-04-04T08:18:15;4.17;;;3.80;;
489;SDS011;231;48.120;11.576;2023-04-04T08:20:42;3.50;;;3.30;;
489;SDS011;231;48.120;11.576;2023-04-04T08:23:09;6.20;;;3.70;;
489;SDS011;231;48.120;11.576;2023-04-04T08:25:36;3.90;;;3.30;;
489;SDS011;231;48.120;11.576;2023-04-04T08:28:04;3.20;;;3.00;;
489;SDS011;231;48.120;11.576;2023-04-04T08:30:31;3.63;;;3.43;;
489;SDS011;231;48.120;11.576;2023-04-04T08:32:58;3.33;;;3.13;;
489;SDS011;231;48.120;11.576;2023-04-04T08:35:26;5.50;;;3.20;;
489;SDS011;231;48.120;11.576;2023-04-04T08:37:53;4.40;;;4.17;;
489;SDS011;231;48.120;11.576;2023-04-04T08:40:21;3.50;;;3.30;;
489;SDS011;231;48.120;11.576;2023-04-04T08:42:49;7.57;;;4.37;;
489;SDS011;231;48.120;11.576;2023-04-04T08:45:17;3.17;;;2.97;;
489;SDS011;231;48.120;11.576;2023-04-04T08:47:46;6.20;;;3.77;;
489;SDS011;231;48.120;11.576;2023-04-04T08:50:15;5.00;;;3.03;;
489;SDS011;231;48.120;11.576;2023-04-04T08:52:43;4.57;;;3.60;;
489;SDS011;231;48.120;11.576;2023-04-04T08:55:11;5.17;;;3.10;;
489;SDS011;231;48.120;11.576;2023-04-04T08:57:39;5.43;;;5.13;;
489;SDS011;231;48.120;11.576;2023-04-04T09:00:06;5.60;;;5.30;;
489;SDS011;231;48.120;11.576;2023-04-04T09:02:36;4.70;;;4.43;;
489;SDS011;231;48.120;11.576;2023-04-04T09:05:08;5.67;;;4.90;;
489;SDS011;231;48.120;11.576;2023-04-04T09:07:37;5.07;;;3.90;;
489;SDS011;231;48.120;11.576;2023-04-04T09:10:06;4.00;;;3.80;;
489;SDS011;231;48.120;11.576;2023-04-04T09:12:37;3.93;;;3.73;;
489;SDS011;231;48.120;11.576;2023-04-04T09:15:07;3.73;;;3.53;;
489;SDS011;231;48.120;11.576;2023-04-04T09:17:35;4.10;;;3.93;;
489;SDS011;231;48.120;11.576;2023-04-04T09:20:02;3.60;;;3.40;;
489;SDS011;231;48.120;11.576;2023-04-04T09:22:49;3.40;;;3.20;;
489;SDS011;231;48.120;11.576;2023-04-04T09:25:18;4.00;;;3.80;;
489;SDS011;231;48.120;11.576;2023-04-04T09:27:45;4.33;;;4.03;;
489;SDS011;231;48.120;11.576;2023-04-04T09:30:13;4.07;;;3.87;;
489;SDS011;231;48.120;11.576;2023-04-04T09:32:40;4.43;;;3.87;;
489;SDS011;231;48.120;11.576;2023-04-04T09:35:08;5.80;;;3.70;;
489;SDS011;231;48.120;11.576;2023-04-04T09:37:38;4.47;;;3.67;;
489;SDS011;231;48.120;11.576;2023-04-04T09:40:06;4.77;;;4.43;;
489;SDS011;231;48.120;11.576;2023-04-04T09:42:36;3.70;;;3.50;;
489;SDS011;231;48.120;11.576;2023-04-04T09:45:04;4.07;;;3.87;;
489;SDS011;231;48.120;11.576;2023-04-04T09:47:33;3.80;;;3.70;;
489;SDS011;231;48.120;11.576;2023-04-04T09:50:07;4.33;;;4.03;;
489;SDS011;231;48.120;11.576;2023-04-04T09:52:35;3.93;;;3.63;;
489;SDS011;231;48.120;11.576;2023-04-04T09:55:02;6.17;;;3.87;;
489;SDS011;231;48.120;11.576;2023-04-04T09:57:33;3.40;;;3.20;;
489;SDS011;231;48.120;11.576;2023-04-04T10:00:03;4.10;;;3.50;;
489;SDS011;231;48.120;11.576;2023-04-04T10:02:34;2.90;;;2.70;;
489;SDS011;231;48.120;11.576;2023-04-04T10:05:03;3.80;;;3.50;;
489;SDS011;231;48.120;11.576;2023-04-04T10:07:30;4.80;;;4.50;;
489;SDS011;231;48.120;11.576;2023-04-04T10:09:59;3.60;;;3.40;;
489;SDS011;231;48.120;11.576;2023-04-04T10:12:30;3.87;;;3.67;;
489;SDS011;231;48.120;11.576;2023-04-04T10:14:57;3.73;;;3.53;;
489;SDS011;231;48.120;11.576;2023-04-04T10:17:30;4.10;;;3.17;;
489;SDS011;231;48.120;11.576;2023-04-04T10:20:02;3.93;;;3.70;;
489;SDS011;231;48.120;11.576;2023-04-04T10:22:30;6.10;;;4.50;;
489;SDS011;231;48.120;11.576;2023-04-04T10:24:58;3.30;;;3.10;;
489;SDS011;231;48.120;11.576;2023-04-04T10:27:25;3.67;;;3.47;;
489;SDS011;231;48.120;11.576;2023-04-04T10:29:53;3.17;;;2.83;;
489;SDS011;231;48.120;11.576;2023-04-04T10:32:27;4.13;;;3.90;;
489;SDS011;231;48.120;11.576;2023-04-04T10:34:59;4.80;;;4.03;;
489;SDS011;231;48.120;11.576;2023-04-04T10:37:30;3.97;;;3.70;;
489;SDS011;231;48.120;11.576;2023-04-04T10:40:00;3.97;;;3.77;;
489;SDS011;231;48.120;11.576;2023-04-04T10:42:37;3.50;;;3.30;;
489;SDS011;231;48.120;11.576;2023-04-04T10:45:07;4.60;;;4.30;;
489;SDS011;231;48.120;11.576;2023-04-04T10:47:36;4.50;;;4.17;;
489;SDS011;231;48.120;11.576;2023-04-04T10:50:05;3.90;;;3.70;;
489;SDS011;231;48.120;11.576;2023-04-04T10:52:34;4.30;;;3.17;;
489;SDS011;231;48.120;11.576;2023-04-04T10:55:02;4.33;;;3.80;;
489;SDS011;231;48.120;11.576;2023-04-04T10:57:31;3.63;;;3.43;;
489;SDS011;231;48.120;11.576;2023-04-04T11:00:00;4.27;;;4.00;;
489;SDS011;231;48.120;11.576;2023-04-04T11:02:44;3.43;;;3.20;;
489;SDS011;231;48.120;11.576;2023-04-04T11:05:17;3.80;;;3.60;;
489;SDS011;231;48.120;11.576;2023-04-04T11:07:47;4.13;;;3.90;;
489;SDS011;231;48.120;11.576;2023-04-04T11:10:20;4.00;;;3.80;;
489;SDS011;231;48.120;11.576;2023-04-04T11:12:51;4.33;;;4.03;;
489;SDS011;231;48.120;11.576;2023-04-04T11:15:20;3.67;;;3.47;;
489;SDS011;231;48.120;11.576;2023-04-04T11:17:59;5.53;;;4.00;;
489;SDS011;231;48.120;11.576;2023-04-04T11:20:31;4.40;;;4.10;;
489;SDS011;231;48.120;11.576;2023-04-04T11:23:02;4.33;;;4.03;;
489;SDS011;231;48.120;11.576;2023-04-04T11:25:31;3.90;;;3.70;;
489;SDS011;231;48.120;11.576;2023-04-04T11:28:02;3.63;;;3.43;;
489;SDS011;231;48.120;11.576;2023-04-04T11:30:34;4.70;;;4.40;;
489;SDS011;231;48.120;11.576;2023-04-04T11:33:09;3.37;;;3.17;;
489;SDS011;231;48.120;11.576;2023-04-04T11:35:38;3.77;;;3.57;;
489;SDS011;231;48.120;11.576;2023-04-04T11:38:11;3.80;;;3.60;;
489;SDS011;231;48.120;11.576;2023-04-04T11:40:39;4.07;;;3.87;;
489;SDS011;231;48.120;11.576;2023-04-04T11:43:08;5.90;;;4.67;;
489;SDS011;231;48.120;11.576;2023-04-04T11:45:36;3.50;;;3.30;;
489;SDS011;231;48.120;11.576;2023-04-04T11:48:10;3.90;;;3.70;;
489;SDS011;231;48.120;11.576;2023-04-04T11:50:38;4.60;;;4.30;;
489;SDS011;231;48.120;11.576;2023-04-04T11:53:06;4.57;;;4.27;;
489;SDS011;231;48.120;11.576;2023-04-04T11:55:37;6.93;;;4.20;;
489;SDS011;231;48.120;11.576;2023-04-04T11:58:09;4.30;;;3.90;;
489;SDS011;231;48.120;11.576;2023-04-04T12:00:37;4.20;;;3.80;;
489;SDS011;231;48.120;11.576;2023-04-04T12:03:05;4.10;;;3.83;;
489;SDS011;231;48.120;11.576;2023-04-04T12:05:36;4.30;;;4.00;;
489;SDS011;231;48.120;11.576;2023-04-04T12:08:04;5.00;;;4.70;;
489;SDS011;231;48.120;11.576;2023-04-04T12:10:33;4.43;;;3.87;;
489;SDS011;231;48.120;11.576;2023-04-04T12:13:00;4.47;;;4.03;;
489;SDS011;231;48.120;11.576;2023-04-04T12:15:28;3.73;;;3.53;;
489;SDS011;231;48.120;11.576;2023-04-04T12:17:57;3.90;;;3.70;;
489;SDS011;231;48.120;11.576;2023-04-04T12:20:24;4.10;;;3.90;;
489;SDS011;231;48.120;11.576;2023-04-04T12:22:52;4.60;;;4.30;;
489;SDS011;231;48.120;11.576;2023-04-04T12:25:20;4.43;;;4.13;;
489;SDS011;231;48.120;11.576;2023-04-04T12:27:48;6.10;;;3.73;;
489;SDS011;231;48.120;11.576;2023-04-04T12:30:16;3.90;;;3.73;;
489;SDS011;231;48.120;11.576;2023-04-04T12:32:44;4.80;;;4.50;;
489;SDS011;231;48.120;11.576;2023-04-04T12:35:12;4.40;;;4.10;;
489;SDS011;231;48.120;11.576;2023-04-04T12:37:54;5.10;;;4.80;;
489;SDS011;231;48.120;11.576;2023-04-04T12:40:30;6.47;;;4.20;;
489;SDS011;231;48.120;11.576;2023-04-04T12:43:01;4.37;;;4.07;;
489;SDS011;231;48.120;11.576;2023-04-04T12:45:31;5.00;;;3.93;;
489;SDS011;231;48.120;11.576;2023-04-04T12:48:01;4.90;;;4.60;;
489;SDS011;231;48.120;11.576;2023-04-04T12:50:49;4.33;;;4.03;;
489;SDS011;231;48.120;11.576;2023-04-04T12:53:22;8.47;;;4.90;;
489;SDS011;231;48.120;11.576;2023-04-04T12:55:50;6.27;;;5.10;;
489;SDS011;231;48.120;11.576;2023-04-04T12:58:20;6.80;;;5.30;;
489;SDS011;231;48.120;11.576;2023-04-04T13:00:48;5.37;;;4.40;;
489;SDS011;231;48.120;11.576;2023-04-04T13:03:16;4.63;;;4.33;;
489;SDS011;231;48.120;11.576;2023-04-04T13:05:46;4.93;;;4.63;;
489;SDS011;231;48.120;11.576;2023-04-04T13:08:14;4.50;;;4.20;;
489;SDS011;231;48.120;11.576;2023-04-04T13:13:34;5.90;;;4.23;;
489;SDS011;231;48.120;11.576;2023-04-04T13:16:03;4.63;;;4.33;;
489;SDS011;231;48.120;11.576;2023-04-04T13:18:32;6.23;;;4.70;;
489;SDS011;231;48.120;11.576;2023-04-04T13:21:01;4.30;;;4.00;;
489;SDS011;231;48.120;11.576;2023-04-04T13:23:29;4.23;;;3.97;;
489;SDS011;231;48.120;11.576;2023-04-04T13:25:56;4.23;;;3.97;;
489;SDS011;231;48.120;11.576;2023-04-04T13:28:25;4.73;;;4.43;;
489;SDS011;231;48.120;11.576;2023-04-04T13:30:52;3.63;;;3.43;;
489;SDS011;231;48.120;11.576;2023-04-04T13:33:19;4.70;;;4.40;;
489;SDS011;231;48.120;11.576;2023-04-04T13:35:47;4.57;;;4.20;;
489;SDS011;231;48.120;11.576;2023-04-04T13:38:15;4.80;;;4.50;;
489;SDS011;231;48.120;11.576;2023-04-04T13:40:42;5.00;;;4.70;;
489;SDS011;231;48.120;11.576;2023-04-04T13:43:09;4.93;;;4.30;;
489;SDS011;231;48.120;11.576;2023-04-04T13:45:38;4.47;;;4.17;;
489;SDS011;231;48.120;11.576;2023-04-04T13:48:06;4.07;;;3.87;;
489;SDS011;231;48.120;11.576;2023-04-04T13:50:34;4.53;;;4.27;;
489;SDS011;231;48.120;11.576;2023-04-04T13:53:02;4.90;;;4.60;;
489;SDS011;231;48.120;11.576;2023-04-04T13:55:29;5.00;;;4.70;;
489;SDS011;231;48.120;11.576;2023-04-04T13:57:56;5.43;;;4.90;;
489;SDS011;231;48.120;11.576;2023-04-04T14:00:23;7.83;;;4.80;;
489;SDS011;231;48.120;11.576;2023-04-04T14:02:52;4.53;;;4.20;;
489;SDS011;231;48.120;11.576;2023-04-04T14:05:19;4.47;;;4.17;;
489;SDS011;231;48.120;11.576;2023-04-04T14:07:46;5.50;;;5.20;;
489;SDS011;231;48.120;11.576;2023-04-04T14:10:14;5.10;;;4.80;;
489;SDS011;231;48.120;11.576;2023-04-04T14:12:41;4.93;;;4.63;;
489;SDS011;231;48.120;11.576;2023-04-04T14:15:08;5.07;;;4.77;;
489;SDS011;231;48.120;11.576;2023-04-04T14:17:36;5.53;;;5.23;;
489;SDS011;231;48.120;11.576;2023-04-04T14:20:05;4.43;;;4.13;;
489;SDS011;231;48.120;11.576;2023-04-04T14:22:32;5.60;;;4.70;;
489;SDS011;231;48.120;11.576;2023-04-04T14:24:59;4.53;;;4.23;;
489;SDS011;231;48.120;11.576;2023-04-04T14:27:26;4.47;;;4.17;;
489;SDS011;231;48.120;11.576;2023-04-04T14:29:53;4.50;;;4.20;;
489;SDS011;231;48.120;11.576;2023-04-04T14:32:20;4.60;;;4.30;;
489;SDS011;231;48.120;11.576;2023-04-04T14:34:46;7.50;;;4.80;;
489;SDS011;231;48.120;11.576;2023-04-04T14:37:15;4.03;;;3.83;;
489;SDS011;231;48.120;11.576;2023-04-04T14:39:41;4.87;;;4.57;;
489;SDS011;231;48.120;11.576;2023-04-04T14:42:08;4.60;;;4.30;;
489;SDS011;231;48.120;11.576;2023-04-04T14:44:35;4.80;;;4.50;;
489;SDS011;231;48.120;11.576;2023-04-04T14:47:02;4.40;;;4.10;;
489;SDS011;231;48.120;11.576;2023-04-04T14:49:29;6.40;;;4.60;;
489;SDS011;231;48.120;11.576;2023-04-04T14:51:56;5.00;;;4.70;;
489;SDS011;231;48.120;11.576;2023-04-04T14:54:24;4.30;;;4.00;;
489;SDS011;231;48.120;11.576;2023-04-04T14:56:51;5.17;;;4.53;;
489;SDS011;231;48.120;11.576;2023-04-04T14:59:18;5.20;;;4.33;;
489;SDS011;231;48.120;11.576;2023-04-04T15:01:45;4.90;;;4.60;;
489;SDS011;231;48.120;11.576;2023-04-04T15:04:11;4.57;;;4.27;;
489;SDS011;231;48.120;11.576;2023-04-04T15:06:38;5.27;;;4.97;;
489;SDS011;231;48.120;11.576;2023-04-04T15:09:05;4.80;;;3.97;;
489;SDS011;231;48.120;11.576;2023-04-04T15:11:35;5.33;;;5.07;;
489;SDS011;231;48.120;11.576;2023-04-04T15:14:01;5.83;;;4.93;;
489;SDS011;231;48.120;11.576;2023-04-04T15:16:29;4.37;;;4.07;;
489;SDS011;231;48.120;11.576;2023-04-04T15:18:57;5.07;;;4.77;;
489;SDS011;231;48.120;11.576;2023-04-04T15:21:24;5.10;;;4.80;;
489;SDS011;231;48.120;11.576;2023-04-04T15:23:52;5.40;;;4.50;;
489;SDS011;231;48.120;11.576;2023-04-04T15:26:19;5.20;;;4.90;;
489;SDS011;231;48.120;11.576;2023-04-04T15:28:48;4.67;;;4.37;;
489;SDS011;231;48.120;11.576;2023-04-04T15:31:15;5.00;;;4.70;;
489;SDS011;231;48.120;11.576;2023-04-04T15:33:42;5.37;;;5.07;;
489;SDS011;231;48.120;11.576;2023-04-04T15:36:09;5.00;;;4.70;;
489;SDS011;231;48.120;11.576;2023-04-04T15:38:36;5.33;;;4.10;;
489;SDS011;231;48.120;11.576;2023-04-04T15:41:04;4.40;;;4.10;;